sensor_id;sensor_type;location;lat;lon;timestamp;P1;durP1;ratioP1;P2;durP2;ratioP2
6642;SDS011;3357;48.050;7.800;2022-11-20T00:02:25;2.10;;;2.00;;
6642;SDS011;3357;48.050;7.800;2022-11-20T00:04:51;3.33;;;2.33;;
6642;SDS011;3357;48.050;7.800;2022-11-20T00:07:16;5.47;;;2.20;;
6642;SDS011;3357;48.050;7.800;2022-11-20T00:09:42;2.80;;;1.87;;
6642;SDS011;3357;48.050;7.800;2022-11-20T00:12:07;7.23;;;2.07;;
6642;SDS011;3357;48.050;7.800;2022-11-20T00:14:32;2.43;;;2.23;;
6642;SDS011;3357;48.050;7.800;2022-11-20T00:16:58;2.10;;;1.90;;
6642;SDS011;3357;48.050;7.800;2022-11-20T00:19:23;4.97;;;2.77;;
6642;SDS011;3357;48.050;7.800;2022-11-20T00:21:48;2.27;;;2.00;;
6642;SDS011;3357;48.050;7.800;2022-11-20T00:24:20;2.27;;;1.87;;
6642;SDS011;3357;48.050;7.800;2022-11-20T00:26:46;2.77;;;2.37;;
6642;SDS011;3357;48.050;7.800;2022-11-20T00:29:11;3.40;;;2.20;;
6642;SDS011;3357;48.050;7.800;2022-11-20T00:31:37;4.50;;;2.10;;
6642;SDS011;3357;48.050;7.800;2022-11-20T00:34:02;2.20;;;2.10;;
6642;SDS011;3357;48.050;7.800;2022-11-20T00:36:28;2.10;;;1.90;;
6642;SDS011;3357;48.050;7.800;2022-11-20T00:38:57;7.03;;;2.53;;
6642;SDS011;3357;48.050;7.800;2022-11-20T00:41:23;3.03;;;2.30;;
6642;SDS011;3357;48.050;7.800;2022-11-20T00:43:50;3.53;;;2.30;;
6642;SDS011;3357;48.050;7.800;2022-11-20T00:46:17;3.83;;;2.20;;
6642;SDS011;3357;48.050;7.800;2022-11-20T00:48:43;3.37;;;3.00;;
6642;SDS011;3357;48.050;7.800;2022-11-20T00:51:10;7.57;;;2.30;;
6642;SDS011;3357;48.050;7.800;2022-11-20T00:53:37;5.77;;;2.67;;
6642;SDS011;3357;48.050;7.800;2022-11-20T00:56:04;7.00;;;3.10;;
6642;SDS011;3357;48.050;7.800;2022-11-20T00:58:31;5.93;;;2.70;;
6642;SDS011;3357;48.050;7.800;2022-11-20T01:01:11;3.73;;;2.30;;
6642;SDS011;3357;48.050;7.800;2022-11-20T01:03:38;3.20;;;2.70;;
6642;SDS011;3357;48.050;7.800;2022-11-20T01:06:27;7.77;;;2.60;;
6642;SDS011;3357;48.050;7.800;2022-11-20T01:08:55;2.67;;;2.47;;
6642;SDS011;3357;48.050;7.800;2022-11-20T01:11:23;5.10;;;2.40;;
6642;SDS011;3357;48.050;7.800;2022-11-20T01:13:53;2.53;;;2.10;;
6642;SDS011;3357;48.050;7.800;2022-11-20T01:16:21;2.90;;;2.30;;
6642;SDS011;3357;48.050;7.800;2022-11-20T01:18:48;5.53;;;2.73;;
6642;SDS011;3357;48.050;7.800;2022-11-20T01:21:15;4.17;;;3.17;;
6642;SDS011;3357;48.050;7.800;2022-11-20T01:23:45;2.90;;;2.70;;
6642;SDS011;3357;48.050;7.800;2022-11-20T01:26:15;4.60;;;2.63;;
6642;SDS011;3357;48.050;7.800;2022-11-20T01:28:41;4.73;;;2.60;;
6642;SDS011;3357;48.050;7.800;2022-11-20T01:31:27;5.23;;;2.20;;
6642;SDS011;3357;48.050;7.800;2022-11-20T01:33:55;4.07;;;2.33;;
6642;SDS011;3357;48.050;7.800;2022-11-20T01:36:22;2.70;;;2.13;;
6642;SDS011;3357;48.050;7.800;2022-11-20T01:38:52;2.73;;;2.50;;
6642;SDS011;3357;48.050;7.800;2022-11-20T01:41:21;2.50;;;2.30;;
6642;SDS011;3357;48.050;7.800;2022-11-20T01:44:05;3.70;;;2.50;;
6642;SDS011;3357;48.050;7.800;2022-11-20T01:46:31;3.97;;;2.97;;
6642;SDS011;3357;48.050;7.800;2022-11-20T01:49:17;3.00;;;2.60;;
6642;SDS011;3357;48.050;7.800;2022-11-20T01:51:46;4.20;;;2.80;;
6642;SDS011;3357;48.050;7.800;2022-11-20T01:54:16;4.97;;;2.83;;
6642;SDS011;3357;48.050;7.800;2022-11-20T01:56:45;2.63;;;2.40;;
6642;SDS011;3357;48.050;7.800;2022-11-20T01:59:13;7.30;;;2.80;;
6642;SDS011;3357;48.050;7.800;2022-11-20T02:01:41;8.90;;;2.63;;
6642;SDS011;3357;48.050;7.800;2022-11-20T02:04:07;3.23;;;2.90;;
6642;SDS011;3357;48.050;7.800;2022-11-20T02:06:39;2.20;;;2.10;;
6642;SDS011;3357;48.050;7.800;2022-11-20T02:09:08;5.20;;;2.60;;
6642;SDS011;3357;48.050;7.800;2022-11-20T02:11:33;2.57;;;2.37;;
6642;SDS011;3357;48.050;7.800;2022-11-20T02:13:58;2.53;;;2.33;;
6642;SDS011;3357;48.050;7.800;2022-11-20T02:16:28;2.10;;;1.97;;
6642;SDS011;3357;48.050;7.800;2022-11-20T02:18:56;3.43;;;2.60;;
6642;SDS011;3357;48.050;7.800;2022-11-20T02:21:37;3.20;;;2.73;;
6642;SDS011;3357;48.050;7.800;2022-11-20T02:26:43;3.80;;;2.13;;
6642;SDS011;3357;48.050;7.800;2022-11-20T02:29:11;3.07;;;2.00;;
6642;SDS011;3357;48.050;7.800;2022-11-20T02:31:37;3.63;;;2.27;;
6642;SDS011;3357;48.050;7.800;2022-11-20T02:34:05;9.60;;;2.43;;
6642;SDS011;3357;48.050;7.800;2022-11-20T02:36:31;2.37;;;2.17;;
6642;SDS011;3357;48.050;7.800;2022-11-20T02:38:58;2.97;;;2.37;;
6642;SDS011;3357;48.050;7.800;2022-11-20T02:41:30;7.07;;;2.37;;
6642;SDS011;3357;48.050;7.800;2022-11-20T02:43:59;2.47;;;2.27;;
6642;SDS011;3357;48.050;7.800;2022-11-20T02:46:25;3.20;;;2.00;;
6642;SDS011;3357;48.050;7.800;2022-11-20T02:48:51;2.33;;;2.13;;
6642;SDS011;3357;48.050;7.800;2022-11-20T02:51:16;2.20;;;2.00;;
6642;SDS011;3357;48.050;7.800;2022-11-20T02:53:42;4.93;;;2.37;;
6642;SDS011;3357;48.050;7.800;2022-11-20T02:56:08;4.93;;;1.97;;
6642;SDS011;3357;48.050;7.800;2022-11-20T02:58:33;2.40;;;2.07;;
6642;SDS011;3357;48.050;7.800;2022-11-20T03:00:58;3.17;;;2.40;;
6642;SDS011;3357;48.050;7.800;2022-11-20T03:03:25;3.57;;;2.37;;
6642;SDS011;3357;48.050;7.800;2022-11-20T03:05:50;7.20;;;2.30;;
6642;SDS011;3357;48.050;7.800;2022-11-20T03:08:15;3.23;;;2.33;;
6642;SDS011;3357;48.050;7.800;2022-11-20T03:10:40;5.43;;;2.33;;
6642;SDS011;3357;48.050;7.800;2022-11-20T03:13:06;2.37;;;2.17;;
6642;SDS011;3357;48.050;7.800;2022-11-20T03:15:31;3.07;;;2.10;;
6642;SDS011;3357;48.050;7.800;2022-11-20T03:17:56;3.20;;;2.50;;
6642;SDS011;3357;48.050;7.800;2022-11-20T03:20:22;1.70;;;1.60;;
6642;SDS011;3357;48.050;7.800;2022-11-20T03:22:48;5.20;;;2.00;;
6642;SDS011;3357;48.050;7.800;2022-11-20T03:25:14;6.83;;;2.10;;
6642;SDS011;3357;48.050;7.800;2022-11-20T03:27:39;5.03;;;2.40;;
6642;SDS011;3357;48.050;7.800;2022-11-20T03:30:05;2.93;;;2.40;;
6642;SDS011;3357;48.050;7.800;2022-11-20T03:32:30;2.03;;;1.70;;
6642;SDS011;3357;48.050;7.800;2022-11-20T03:34:59;2.90;;;2.13;;
6642;SDS011;3357;48.050;7.800;2022-11-20T03:37:24;5.97;;;2.90;;
6642;SDS011;3357;48.050;7.800;2022-11-20T03:39:49;2.80;;;2.33;;
6642;SDS011;3357;48.050;7.800;2022-11-20T03:42:15;6.90;;;2.77;;
6642;SDS011;3357;48.050;7.800;2022-11-20T03:44:59;2.90;;;2.47;;
6642;SDS011;3357;48.050;7.800;2022-11-20T03:47:24;3.67;;;2.70;;
6642;SDS011;3357;48.050;7.800;2022-11-20T03:49:51;2.47;;;2.27;;
6642;SDS011;3357;48.050;7.800;2022-11-20T03:52:17;3.60;;;2.50;;
6642;SDS011;3357;48.050;7.800;2022-11-20T03:54:42;3.77;;;2.57;;
6642;SDS011;3357;48.050;7.800;2022-11-20T03:57:08;3.10;;;2.80;;
6642;SDS011;3357;48.050;7.800;2022-11-20T03:59:33;3.13;;;2.87;;
6642;SDS011;3357;48.050;7.800;2022-11-20T04:01:58;4.43;;;2.13;;
6642;SDS011;3357;48.050;7.800;2022-11-20T04:04:26;4.77;;;2.77;;
6642;SDS011;3357;48.050;7.800;2022-11-20T04:06:51;3.33;;;3.03;;
6642;SDS011;3357;48.050;7.800;2022-11-20T04:09:16;4.27;;;2.70;;
6642;SDS011;3357;48.050;7.800;2022-11-20T04:11:41;3.20;;;2.47;;
6642;SDS011;3357;48.050;7.800;2022-11-20T04:14:11;3.90;;;2.67;;
6642;SDS011;3357;48.050;7.800;2022-11-20T04:16:38;2.50;;;2.33;;
6642;SDS011;3357;48.050;7.800;2022-11-20T04:19:08;5.13;;;3.07;;
6642;SDS011;3357;48.050;7.800;2022-11-20T04:21:35;2.60;;;2.37;;
6642;SDS011;3357;48.050;7.800;2022-11-20T04:24:00;3.00;;;2.73;;
6642;SDS011;3357;48.050;7.800;2022-11-20T04:26:30;15.03;;;3.03;;
6642;SDS011;3357;48.050;7.800;2022-11-20T04:28:55;3.67;;;2.50;;
6642;SDS011;3357;48.050;7.800;2022-11-20T04:31:23;3.13;;;2.73;;
6642;SDS011;3357;48.050;7.800;2022-11-20T04:33:50;2.63;;;2.40;;
6642;SDS011;3357;48.050;7.800;2022-11-20T04:36:22;2.53;;;2.33;;
6642;SDS011;3357;48.050;7.800;2022-11-20T04:38:52;2.87;;;2.60;;
6642;SDS011;3357;48.050;7.800;2022-11-20T04:41:19;2.87;;;2.40;;
6642;SDS011;3357;48.050;7.800;2022-11-20T04:43:48;5.40;;;2.30;;
6642;SDS011;3357;48.050;7.800;2022-11-20T04:46:15;4.10;;;1.80;;
6642;SDS011;3357;48.050;7.800;2022-11-20T04:48:41;3.17;;;2.10;;
6642;SDS011;3357;48.050;7.800;2022-11-20T04:51:06;3.47;;;1.90;;
6642;SDS011;3357;48.050;7.800;2022-11-20T04:53:32;5.63;;;1.83;;
6642;SDS011;3357;48.050;7.800;2022-11-20T04:56:00;2.07;;;1.97;;
6642;SDS011;3357;48.050;7.800;2022-11-20T04:58:27;3.50;;;1.80;;
6642;SDS011;3357;48.050;7.800;2022-11-20T05:00:52;1.97;;;1.47;;
6642;SDS011;3357;48.050;7.800;2022-11-20T05:03:17;3.20;;;2.00;;
6642;SDS011;3357;48.050;7.800;2022-11-20T05:05:43;1.60;;;1.50;;
6642;SDS011;3357;48.050;7.800;2022-11-20T05:08:08;3.73;;;1.67;;
6642;SDS011;3357;48.050;7.800;2022-11-20T05:10:33;1.70;;;1.60;;
6642;SDS011;3357;48.050;7.800;2022-11-20T05:12:59;1.37;;;1.20;;
6642;SDS011;3357;48.050;7.800;2022-11-20T05:15:25;2.73;;;2.07;;
6642;SDS011;3357;48.050;7.800;2022-11-20T05:17:51;1.93;;;1.60;;
6642;SDS011;3357;48.050;7.800;2022-11-20T05:20:17;2.13;;;1.50;;
6642;SDS011;3357;48.050;7.800;2022-11-20T05:22:43;1.90;;;1.70;;
6642;SDS011;3357;48.050;7.800;2022-11-20T05:25:09;1.53;;;1.43;;
6642;SDS011;3357;48.050;7.800;2022-11-20T05:27:35;1.80;;;1.70;;
6642;SDS011;3357;48.050;7.800;2022-11-20T05:30:00;1.60;;;1.50;;
6642;SDS011;3357;48.050;7.800;2022-11-20T05:32:26;1.87;;;1.77;;
6642;SDS011;3357;48.050;7.800;2022-11-20T05:34:52;2.53;;;1.50;;
6642;SDS011;3357;48.050;7.800;2022-11-20T05:37:17;2.13;;;1.60;;
6642;SDS011;3357;48.050;7.800;2022-11-20T05:39:42;2.47;;;1.30;;
6642;SDS011;3357;48.050;7.800;2022-11-20T05:42:08;2.33;;;1.87;;
6642;SDS011;3357;48.050;7.800;2022-11-20T05:44:51;1.97;;;1.83;;
6642;SDS011;3357;48.050;7.800;2022-11-20T05:47:16;2.00;;;1.80;;
6642;SDS011;3357;48.050;7.800;2022-11-20T05:49:43;2.40;;;1.90;;
6642;SDS011;3357;48.050;7.800;2022-11-20T05:52:08;1.50;;;1.40;;
6642;SDS011;3357;48.050;7.800;2022-11-20T05:54:34;3.77;;;1.40;;
6642;SDS011;3357;48.050;7.800;2022-11-20T05:56:59;2.20;;;1.83;;
6642;SDS011;3357;48.050;7.800;2022-11-20T05:59:26;1.50;;;1.40;;
6642;SDS011;3357;48.050;7.800;2022-11-20T06:01:52;3.03;;;1.60;;
6642;SDS011;3357;48.050;7.800;2022-11-20T06:04:17;1.77;;;1.50;;
6642;SDS011;3357;48.050;7.800;2022-11-20T06:06:42;2.07;;;1.63;;
6642;SDS011;3357;48.050;7.800;2022-11-20T06:09:07;1.50;;;1.40;;
6642;SDS011;3357;48.050;7.800;2022-11-20T06:11:33;1.30;;;1.20;;
6642;SDS011;3357;48.050;7.800;2022-11-20T06:14:00;1.50;;;1.40;;
6642;SDS011;3357;48.050;7.800;2022-11-20T06:16:25;1.50;;;1.40;;
6642;SDS011;3357;48.050;7.800;2022-11-20T06:18:51;1.30;;;1.20;;
6642;SDS011;3357;48.050;7.800;2022-11-20T06:21:17;1.83;;;1.30;;
6642;SDS011;3357;48.050;7.800;2022-11-20T06:23:44;1.10;;;1.00;;
6642;SDS011;3357;48.050;7.800;2022-11-20T06:26:11;2.07;;;1.60;;
6642;SDS011;3357;48.050;7.800;2022-11-20T06:28:40;2.70;;;1.43;;
6642;SDS011;3357;48.050;7.800;2022-11-20T06:31:06;1.40;;;1.30;;
6642;SDS011;3357;48.050;7.800;2022-11-20T06:33:32;1.20;;;1.20;;
6642;SDS011;3357;48.050;7.800;2022-11-20T06:36:03;2.33;;;1.10;;
6642;SDS011;3357;48.050;7.800;2022-11-20T06:38:29;1.20;;;1.20;;
6642;SDS011;3357;48.050;7.800;2022-11-20T06:40:54;1.70;;;1.27;;
6642;SDS011;3357;48.050;7.800;2022-11-20T06:43:21;1.20;;;1.17;;
6642;SDS011;3357;48.050;7.800;2022-11-20T06:45:54;1.50;;;1.40;;
6642;SDS011;3357;48.050;7.800;2022-11-20T06:48:20;1.30;;;1.20;;
6642;SDS011;3357;48.050;7.800;2022-11-20T06:50:46;1.70;;;1.50;;
6642;SDS011;3357;48.050;7.800;2022-11-20T06:53:11;1.33;;;1.23;;
6642;SDS011;3357;48.050;7.800;2022-11-20T06:55:41;1.40;;;1.30;;
6642;SDS011;3357;48.050;7.800;2022-11-20T06:58:07;1.57;;;1.47;;
6642;SDS011;3357;48.050;7.800;2022-11-20T07:00:32;1.33;;;1.23;;
6642;SDS011;3357;48.050;7.800;2022-11-20T07:02:57;1.67;;;1.57;;
6642;SDS011;3357;48.050;7.800;2022-11-20T07:05:23;1.73;;;1.30;;
6642;SDS011;3357;48.050;7.800;2022-11-20T07:07:48;1.83;;;1.57;;
6642;SDS011;3357;48.050;7.800;2022-11-20T07:10:14;2.60;;;1.53;;
6642;SDS011;3357;48.050;7.800;2022-11-20T07:12:40;1.10;;;1.10;;
6642;SDS011;3357;48.050;7.800;2022-11-20T07:15:06;1.33;;;1.13;;
6642;SDS011;3357;48.050;7.800;2022-11-20T07:17:32;1.43;;;1.30;;
6642;SDS011;3357;48.050;7.800;2022-11-20T07:19:57;7.90;;;1.70;;
6642;SDS011;3357;48.050;7.800;2022-11-20T07:22:24;1.50;;;1.30;;
6642;SDS011;3357;48.050;7.800;2022-11-20T07:24:49;1.30;;;1.20;;
6642;SDS011;3357;48.050;7.800;2022-11-20T07:27:15;2.33;;;1.20;;
6642;SDS011;3357;48.050;7.800;2022-11-20T07:29:40;1.40;;;1.30;;
6642;SDS011;3357;48.050;7.800;2022-11-20T07:32:05;1.30;;;1.20;;
6642;SDS011;3357;48.050;7.800;2022-11-20T07:34:31;1.27;;;0.90;;
6642;SDS011;3357;48.050;7.800;2022-11-20T07:36:56;3.90;;;1.37;;
6642;SDS011;3357;48.050;7.800;2022-11-20T07:39:21;2.10;;;1.30;;
6642;SDS011;3357;48.050;7.800;2022-11-20T07:41:46;2.07;;;1.40;;
6642;SDS011;3357;48.050;7.800;2022-11-20T07:44:12;1.30;;;1.20;;
6642;SDS011;3357;48.050;7.800;2022-11-20T07:46:37;5.60;;;1.10;;
6642;SDS011;3357;48.050;7.800;2022-11-20T07:49:02;1.30;;;1.20;;
6642;SDS011;3357;48.050;7.800;2022-11-20T07:51:27;1.30;;;1.17;;
6642;SDS011;3357;48.050;7.800;2022-11-20T07:53:54;3.23;;;1.10;;
6642;SDS011;3357;48.050;7.800;2022-11-20T07:56:19;1.93;;;1.40;;
6642;SDS011;3357;48.050;7.800;2022-11-20T07:58:45;3.80;;;1.20;;
6642;SDS011;3357;48.050;7.800;2022-11-20T08:01:10;1.20;;;1.10;;
6642;SDS011;3357;48.050;7.800;2022-11-20T08:03:36;1.33;;;1.13;;
6642;SDS011;3357;48.050;7.800;2022-11-20T08:06:02;1.63;;;1.53;;
6642;SDS011;3357;48.050;7.800;2022-11-20T08:08:29;1.40;;;1.30;;
6642;SDS011;3357;48.050;7.800;2022-11-20T08:10:58;2.47;;;1.40;;
6642;SDS011;3357;48.050;7.800;2022-11-20T08:13:42;1.50;;;1.40;;
6642;SDS011;3357;48.050;7.800;2022-11-20T08:16:27;1.40;;;1.30;;
6642;SDS011;3357;48.050;7.800;2022-11-20T08:18:52;1.33;;;1.23;;
6642;SDS011;3357;48.050;7.800;2022-11-20T08:21:18;1.50;;;1.40;;
6642;SDS011;3357;48.050;7.800;2022-11-20T08:23:43;1.30;;;1.20;;
6642;SDS011;3357;48.050;7.800;2022-11-20T08:26:09;1.53;;;1.43;;
6642;SDS011;3357;48.050;7.800;2022-11-20T08:28:34;1.40;;;1.40;;
6642;SDS011;3357;48.050;7.800;2022-11-20T08:31:02;2.33;;;1.33;;
6642;SDS011;3357;48.050;7.800;2022-11-20T08:33:28;1.10;;;1.00;;
6642;SDS011;3357;48.050;7.800;2022-11-20T08:35:53;1.20;;;1.20;;
6642;SDS011;3357;48.050;7.800;2022-11-20T08:38:23;3.43;;;1.30;;
6642;SDS011;3357;48.050;7.800;2022-11-20T08:40:49;1.50;;;1.40;;
6642;SDS011;3357;48.050;7.800;2022-11-20T08:43:34;1.00;;;1.00;;
6642;SDS011;3357;48.050;7.800;2022-11-20T08:45:59;1.20;;;1.10;;
6642;SDS011;3357;48.050;7.800;2022-11-20T08:48:24;1.60;;;1.10;;
6642;SDS011;3357;48.050;7.800;2022-11-20T08:50:50;1.43;;;1.20;;
6642;SDS011;3357;48.050;7.800;2022-11-20T08:53:15;2.63;;;1.10;;
6642;SDS011;3357;48.050;7.800;2022-11-20T08:55:40;1.70;;;1.20;;
6642;SDS011;3357;48.050;7.800;2022-11-20T08:58:06;4.07;;;1.13;;
6642;SDS011;3357;48.050;7.800;2022-11-20T09:00:32;1.93;;;1.10;;
6642;SDS011;3357;48.050;7.800;2022-11-20T09:02:57;1.20;;;1.10;;
6642;SDS011;3357;48.050;7.800;2022-11-20T09:05:23;1.37;;;1.10;;
6642;SDS011;3357;48.050;7.800;2022-11-20T09:07:49;1.07;;;0.97;;
6642;SDS011;3357;48.050;7.800;2022-11-20T09:10:14;1.50;;;1.30;;
6642;SDS011;3357;48.050;7.800;2022-11-20T09:12:40;1.13;;;1.03;;
6642;SDS011;3357;48.050;7.800;2022-11-20T09:15:06;3.13;;;1.23;;
6642;SDS011;3357;48.050;7.800;2022-11-20T09:17:32;2.20;;;1.10;;
6642;SDS011;3357;48.050;7.800;2022-11-20T09:19:57;1.40;;;1.30;;
6642;SDS011;3357;48.050;7.800;2022-11-20T09:22:23;1.13;;;1.03;;
6642;SDS011;3357;48.050;7.800;2022-11-20T09:24:48;2.70;;;1.40;;
6642;SDS011;3357;48.050;7.800;2022-11-20T09:27:13;2.63;;;1.40;;
6642;SDS011;3357;48.050;7.800;2022-11-20T09:29:39;3.40;;;1.07;;
6642;SDS011;3357;48.050;7.800;2022-11-20T09:32:04;1.03;;;1.03;;
6642;SDS011;3357;48.050;7.800;2022-11-20T09:34:30;7.63;;;1.20;;
6642;SDS011;3357;48.050;7.800;2022-11-20T09:36:55;1.73;;;1.30;;
6642;SDS011;3357;48.050;7.800;2022-11-20T09:39:20;2.67;;;1.40;;
6642;SDS011;3357;48.050;7.800;2022-11-20T09:42:04;1.20;;;1.10;;
6642;SDS011;3357;48.050;7.800;2022-11-20T09:49:51;1.67;;;1.10;;
6642;SDS011;3357;48.050;7.800;2022-11-20T09:52:44;1.33;;;1.20;;
6642;SDS011;3357;48.050;7.800;2022-11-20T09:55:15;3.33;;;1.30;;
6642;SDS011;3357;48.050;7.800;2022-11-20T09:57:42;1.30;;;1.20;;
6642;SDS011;3357;48.050;7.800;2022-11-20T10:00:10;3.33;;;1.20;;
6642;SDS011;3357;48.050;7.800;2022-11-20T10:05:28;1.40;;;1.30;;
6642;SDS011;3357;48.050;7.800;2022-11-20T10:10:59;1.43;;;1.33;;
6642;SDS011;3357;48.050;7.800;2022-11-20T10:19:41;1.03;;;1.00;;
6642;SDS011;3357;48.050;7.800;2022-11-20T10:24:47;1.30;;;1.20;;
6642;SDS011;3357;48.050;7.800;2022-11-20T10:27:46;1.37;;;1.30;;
6642;SDS011;3357;48.050;7.800;2022-11-20T10:30:17;3.10;;;1.50;;
6642;SDS011;3357;48.050;7.800;2022-11-20T10:35:49;4.07;;;1.40;;
6642;SDS011;3357;48.050;7.800;2022-11-20T10:38:21;2.43;;;1.57;;
6642;SDS011;3357;48.050;7.800;2022-11-20T10:40:52;1.50;;;1.40;;
6642;SDS011;3357;48.050;7.800;2022-11-20T10:43:39;4.47;;;1.63;;
6642;SDS011;3357;48.050;7.800;2022-11-20T10:46:08;1.47;;;1.37;;
6642;SDS011;3357;48.050;7.800;2022-11-20T10:48:49;2.30;;;1.40;;
6642;SDS011;3357;48.050;7.800;2022-11-20T10:56:47;2.67;;;1.50;;
6642;SDS011;3357;48.050;7.800;2022-11-20T11:01:56;7.40;;;1.50;;
6642;SDS011;3357;48.050;7.800;2022-11-20T11:04:26;1.30;;;1.20;;
6642;SDS011;3357;48.050;7.800;2022-11-20T11:06:58;1.40;;;1.30;;
6642;SDS011;3357;48.050;7.800;2022-11-20T11:09:33;3.40;;;1.60;;
6642;SDS011;3357;48.050;7.800;2022-11-20T11:12:00;3.50;;;1.60;;
6642;SDS011;3357;48.050;7.800;2022-11-20T11:14:26;3.57;;;1.33;;
6642;SDS011;3357;48.050;7.800;2022-11-20T11:16:55;2.70;;;1.70;;
6642;SDS011;3357;48.050;7.800;2022-11-20T11:19:22;4.67;;;1.40;;
6642;SDS011;3357;48.050;7.800;2022-11-20T11:21:49;3.13;;;1.67;;
6642;SDS011;3357;48.050;7.800;2022-11-20T11:29:30;2.00;;;1.03;;
6642;SDS011;3357;48.050;7.800;2022-11-20T11:35:01;2.53;;;1.23;;
6642;SDS011;3357;48.050;7.800;2022-11-20T11:37:38;2.83;;;1.30;;
6642;SDS011;3357;48.050;7.800;2022-11-20T11:40:04;3.37;;;1.13;;
6642;SDS011;3357;48.050;7.800;2022-11-20T11:42:40;1.73;;;1.00;;
6642;SDS011;3357;48.050;7.800;2022-11-20T11:45:11;1.97;;;0.80;;
6642;SDS011;3357;48.050;7.800;2022-11-20T11:52:33;2.20;;;1.00;;
6642;SDS011;3357;48.050;7.800;2022-11-20T11:55:04;1.47;;;0.90;;
6642;SDS011;3357;48.050;7.800;2022-11-20T12:00:20;2.17;;;1.00;;
6642;SDS011;3357;48.050;7.800;2022-11-20T12:05:28;1.63;;;1.00;;
6642;SDS011;3357;48.050;7.800;2022-11-20T12:08:02;3.83;;;1.10;;
6642;SDS011;3357;48.050;7.800;2022-11-20T12:13:12;2.00;;;0.90;;
6642;SDS011;3357;48.050;7.800;2022-11-20T12:15:48;1.70;;;0.90;;
6642;SDS011;3357;48.050;7.800;2022-11-20T12:18:20;2.77;;;0.90;;
6642;SDS011;3357;48.050;7.800;2022-11-20T12:26:31;2.50;;;0.70;;
6642;SDS011;3357;48.050;7.800;2022-11-20T12:31:48;0.70;;;0.70;;
6642;SDS011;3357;48.050;7.800;2022-11-20T12:34:58;0.73;;;0.70;;
6642;SDS011;3357;48.050;7.800;2022-11-20T12:37:44;1.03;;;0.70;;
6642;SDS011;3357;48.050;7.800;2022-11-20T12:42:49;0.50;;;0.50;;
6642;SDS011;3357;48.050;7.800;2022-11-20T12:48:56;0.93;;;0.90;;
6642;SDS011;3357;48.050;7.800;2022-11-20T12:53:59;0.80;;;0.80;;
6642;SDS011;3357;48.050;7.800;2022-11-20T13:07:40;1.30;;;1.20;;
6642;SDS011;3357;48.050;7.800;2022-11-20T13:10:11;0.80;;;0.80;;
6642;SDS011;3357;48.050;7.800;2022-11-20T13:12:40;2.60;;;0.97;;
6642;SDS011;3357;48.050;7.800;2022-11-20T13:15:25;1.00;;;0.90;;
6642;SDS011;3357;48.050;7.800;2022-11-20T13:17:58;1.37;;;0.90;;
6642;SDS011;3357;48.050;7.800;2022-11-20T13:20:25;3.50;;;1.00;;
6642;SDS011;3357;48.050;7.800;2022-11-20T13:22:55;2.70;;;0.90;;
6642;SDS011;3357;48.050;7.800;2022-11-20T13:25:29;2.40;;;0.80;;
6642;SDS011;3357;48.050;7.800;2022-11-20T13:27:59;0.80;;;0.80;;
6642;SDS011;3357;48.050;7.800;2022-11-20T13:30:34;5.97;;;1.10;;
6642;SDS011;3357;48.050;7.800;2022-11-20T13:35:37;1.37;;;0.70;;
6642;SDS011;3357;48.050;7.800;2022-11-20T13:40:31;0.87;;;0.87;;
6642;SDS011;3357;48.050;7.800;2022-11-20T13:43:02;3.33;;;0.73;;
6642;SDS011;3357;48.050;7.800;2022-11-20T13:48:41;1.43;;;0.80;;
6642;SDS011;3357;48.050;7.800;2022-11-20T13:51:15;1.20;;;0.80;;
6642;SDS011;3357;48.050;7.800;2022-11-20T13:56:32;4.97;;;0.90;;
6642;SDS011;3357;48.050;7.800;2022-11-20T13:59:05;1.43;;;0.70;;
6642;SDS011;3357;48.050;7.800;2022-11-20T14:01:36;1.20;;;0.80;;
6642;SDS011;3357;48.050;7.800;2022-11-20T14:04:08;1.60;;;0.73;;
6642;SDS011;3357;48.050;7.800;2022-11-20T14:06:38;1.43;;;1.00;;
6642;SDS011;3357;48.050;7.800;2022-11-20T14:09:10;0.87;;;0.80;;
6642;SDS011;3357;48.050;7.800;2022-11-20T14:11:36;1.03;;;0.93;;
6642;SDS011;3357;48.050;7.800;2022-11-20T14:14:13;4.33;;;0.80;;
6642;SDS011;3357;48.050;7.800;2022-11-20T14:16:40;5.43;;;1.40;;
6642;SDS011;3357;48.050;7.800;2022-11-20T14:19:48;1.00;;;0.80;;
6642;SDS011;3357;48.050;7.800;2022-11-20T14:22:08;1.17;;;0.60;;
6642;SDS011;3357;48.050;7.800;2022-11-20T14:24:39;1.13;;;0.70;;
6642;SDS011;3357;48.050;7.800;2022-11-20T14:27:04;1.63;;;0.77;;
6642;SDS011;3357;48.050;7.800;2022-11-20T14:29:37;2.67;;;0.90;;
6642;SDS011;3357;48.050;7.800;2022-11-20T14:32:03;2.93;;;0.83;;
6642;SDS011;3357;48.050;7.800;2022-11-20T14:34:30;1.23;;;0.83;;
6642;SDS011;3357;48.050;7.800;2022-11-20T14:36:57;1.30;;;0.70;;
6642;SDS011;3357;48.050;7.800;2022-11-20T14:39:31;3.10;;;0.73;;
6642;SDS011;3357;48.050;7.800;2022-11-20T14:41:58;2.00;;;0.80;;
6642;SDS011;3357;48.050;7.800;2022-11-20T14:44:29;2.30;;;0.60;;
6642;SDS011;3357;48.050;7.800;2022-11-20T14:46:56;1.33;;;0.90;;
6642;SDS011;3357;48.050;7.800;2022-11-20T14:49:21;1.20;;;1.10;;
6642;SDS011;3357;48.050;7.800;2022-11-20T14:51:47;0.83;;;0.83;;
6642;SDS011;3357;48.050;7.800;2022-11-20T14:54:24;4.03;;;0.90;;
6642;SDS011;3357;48.050;7.800;2022-11-20T14:56:58;2.10;;;1.00;;
6642;SDS011;3357;48.050;7.800;2022-11-20T14:59:25;3.67;;;0.93;;
6642;SDS011;3357;48.050;7.800;2022-11-20T15:01:56;1.53;;;0.90;;
6642;SDS011;3357;48.050;7.800;2022-11-20T15:04:23;0.70;;;0.70;;
6642;SDS011;3357;48.050;7.800;2022-11-20T15:06:49;3.60;;;0.77;;
6642;SDS011;3357;48.050;7.800;2022-11-20T15:09:16;1.90;;;1.00;;
6642;SDS011;3357;48.050;7.800;2022-11-20T15:11:49;1.80;;;0.73;;
6642;SDS011;3357;48.050;7.800;2022-11-20T15:14:18;2.00;;;0.90;;
6642;SDS011;3357;48.050;7.800;2022-11-20T15:16:43;0.80;;;0.70;;
6642;SDS011;3357;48.050;7.800;2022-11-20T15:19:18;2.50;;;0.80;;
6642;SDS011;3357;48.050;7.800;2022-11-20T15:21:51;2.10;;;1.20;;
6642;SDS011;3357;48.050;7.800;2022-11-20T15:24:17;2.40;;;0.90;;
6642;SDS011;3357;48.050;7.800;2022-11-20T15:26:42;2.13;;;0.90;;
6642;SDS011;3357;48.050;7.800;2022-11-20T15:29:09;1.80;;;1.27;;
6642;SDS011;3357;48.050;7.800;2022-11-20T15:31:36;3.53;;;1.20;;
6642;SDS011;3357;48.050;7.800;2022-11-20T15:34:02;2.10;;;0.70;;
6642;SDS011;3357;48.050;7.800;2022-11-20T15:36:27;0.80;;;0.70;;
6642;SDS011;3357;48.050;7.800;2022-11-20T15:38:53;1.07;;;0.70;;
6642;SDS011;3357;48.050;7.800;2022-11-20T15:41:18;0.90;;;0.77;;
6642;SDS011;3357;48.050;7.800;2022-11-20T15:43:43;3.50;;;2.00;;
6642;SDS011;3357;48.050;7.800;2022-11-20T15:46:11;6.17;;;2.13;;
6642;SDS011;3357;48.050;7.800;2022-11-20T15:48:39;0.90;;;0.80;;
6642;SDS011;3357;48.050;7.800;2022-11-20T15:53:34;0.97;;;0.70;;
6642;SDS011;3357;48.050;7.800;2022-11-20T15:55:59;1.10;;;0.80;;
6642;SDS011;3357;48.050;7.800;2022-11-20T15:58:25;1.00;;;0.77;;
6642;SDS011;3357;48.050;7.800;2022-11-20T16:00:51;1.80;;;0.90;;
6642;SDS011;3357;48.050;7.800;2022-11-20T16:03:17;3.17;;;0.73;;
6642;SDS011;3357;48.050;7.800;2022-11-20T16:05:42;1.57;;;0.77;;
6642;SDS011;3357;48.050;7.800;2022-11-20T16:08:08;1.37;;;0.67;;
6642;SDS011;3357;48.050;7.800;2022-11-20T16:10:34;0.73;;;0.73;;
6642;SDS011;3357;48.050;7.800;2022-11-20T16:13:00;1.00;;;0.80;;
6642;SDS011;3357;48.050;7.800;2022-11-20T16:15:44;1.80;;;0.93;;
6642;SDS011;3357;48.050;7.800;2022-11-20T16:18:17;2.10;;;0.67;;
6642;SDS011;3357;48.050;7.800;2022-11-20T16:20:44;5.93;;;1.00;;
6642;SDS011;3357;48.050;7.800;2022-11-20T16:23:10;1.70;;;0.80;;
6642;SDS011;3357;48.050;7.800;2022-11-20T16:25:36;0.80;;;0.80;;
6642;SDS011;3357;48.050;7.800;2022-11-20T16:28:01;0.87;;;0.87;;
6642;SDS011;3357;48.050;7.800;2022-11-20T16:30:27;0.80;;;0.80;;
6642;SDS011;3357;48.050;7.800;2022-11-20T16:32:52;1.33;;;0.70;;
6642;SDS011;3357;48.050;7.800;2022-11-20T16:35:18;1.53;;;0.70;;
6642;SDS011;3357;48.050;7.800;2022-11-20T16:37:43;1.27;;;0.93;;
6642;SDS011;3357;48.050;7.800;2022-11-20T16:40:09;1.33;;;1.07;;
6642;SDS011;3357;48.050;7.800;2022-11-20T16:42:35;0.60;;;0.60;;
6642;SDS011;3357;48.050;7.800;2022-11-20T16:45:01;3.23;;;0.90;;
6642;SDS011;3357;48.050;7.800;2022-11-20T16:47:26;0.63;;;0.63;;
6642;SDS011;3357;48.050;7.800;2022-11-20T16:49:51;1.43;;;0.70;;
6642;SDS011;3357;48.050;7.800;2022-11-20T16:52:17;1.17;;;0.70;;
6642;SDS011;3357;48.050;7.800;2022-11-20T16:54:42;1.60;;;0.80;;
6642;SDS011;3357;48.050;7.800;2022-11-20T16:57:08;0.70;;;0.70;;
6642;SDS011;3357;48.050;7.800;2022-11-20T16:59:34;1.03;;;0.80;;